createdAt,value
2023-03-24T00:01:56.061Z,53.80
2023-03-24T00:04:24.910Z,55.40
2023-03-24T00:06:52.254Z,55.40
2023-03-24T00:09:18.959Z,55.40
2023-03-24T00:11:45.650Z,55.50
2023-03-24T00:14:12.757Z,55.40
2023-03-24T00:16:42.439Z,55.40
2023-03-24T00:19:10.574Z,55.40
2023-03-24T00:21:37.492Z,55.40
2023-03-24T00:24:05.597Z,55.40
2023-03-24T00:26:32.375Z,55.40
2023-03-24T00:28:59.533Z,55.40
2023-03-24T00:31:26.428Z,55.40
2023-03-24T00:33:53.778Z,55.40
2023-03-24T00:36:23.014Z,55.40
2023-03-24T00:38:50.079Z,56.00
2023-03-24T00:41:19.722Z,55.40
2023-03-24T00:43:48.779Z,55.30
2023-03-24T00:46:28.385Z,55.30
2023-03-24T00:49:05.470Z,54.90
2023-03-24T00:51:38.310Z,55.30
2023-03-24T00:54:06.816Z,55.30
2023-03-24T00:56:37.570Z,55.30
2023-03-24T00:59:05.059Z,55.30
2023-03-24T01:01:34.781Z,55.30
2023-03-24T01:04:02.280Z,55.30
2023-03-24T01:06:30.044Z,55.30
2023-03-24T01:08:56.738Z,54.80
2023-03-24T01:11:25.458Z,55.30
2023-03-24T01:13:54.186Z,55.30
2023-03-24T01:16:25.419Z,55.30
2023-03-24T01:18:52.531Z,55.30
2023-03-24T01:21:19.261Z,55.30
2023-03-24T01:23:45.936Z,55.30
2023-03-24T01:26:12.601Z,55.20
2023-03-24T01:28:41.041Z,55.30
2023-03-24T01:31:09.794Z,55.20
2023-03-24T01:33:38.094Z,55.30
2023-03-24T01:36:06.541Z,55.20
2023-03-24T01:38:33.997Z,55.20
2023-03-24T01:41:00.789Z,55.80
2023-03-24T01:43:33.006Z,55.20
2023-03-24T01:46:16.954Z,55.20
2023-03-24T01:49:01.173Z,55.20
2023-03-24T01:51:41.268Z,55.20
2023-03-24T01:54:18.684Z,55.20
2023-03-24T01:57:06.612Z,55.20
2023-03-24T01:59:42.846Z,54.70
2023-03-24T02:02:09.879Z,55.20
2023-03-24T02:04:41.001Z,55.80
2023-03-24T02:07:29.613Z,55.20
2023-03-24T02:09:56.484Z,55.80
2023-03-24T02:12:23.160Z,55.20
2023-03-24T02:14:50.584Z,55.20
2023-03-24T02:17:43.395Z,55.20
2023-03-24T02:20:47.433Z,55.10
2023-03-24T02:23:54.130Z,55.20
2023-03-24T02:26:49.080Z,55.10
2023-03-24T02:29:18.524Z,55.20
2023-03-24T02:31:47.935Z,55.10
2023-03-24T02:34:42.453Z,55.10
2023-03-24T02:37:33.760Z,55.10
2023-03-24T02:40:15.300Z,55.10
2023-03-24T02:42:47.740Z,55.10
2023-03-24T02:45:51.760Z,55.10
2023-03-24T02:48:27.079Z,55.10
2023-03-24T02:50:56.722Z,55.10
2023-03-24T02:53:45.596Z,55.10
2023-03-24T02:56:19.170Z,55.00
2023-03-24T02:58:52.062Z,55.10
2023-03-24T03:02:10.256Z,55.10
2023-03-24T03:04:49.876Z,55.10
2023-03-24T03:07:21.843Z,55.10
2023-03-24T03:10:07.602Z,55.10
2023-03-24T03:12:37.174Z,55.10
2023-03-24T03:15:08.506Z,55.10
2023-03-24T03:17:48.154Z,55.10
2023-03-24T03:20:20.610Z,55.00
2023-03-24T03:22:59.748Z,55.00
2023-03-24T03:25:33.026Z,55.00
2023-03-24T03:28:02.210Z,55.00
2023-03-24T03:30:39.823Z,55.00
2023-03-24T03:33:24.685Z,55.00
2023-03-24T03:36:07.024Z,55.00
2023-03-24T03:39:16.729Z,55.00
2023-03-24T03:41:43.853Z,55.00
2023-03-24T03:44:11.069Z,55.00
2023-03-24T03:46:38.331Z,55.00
2023-03-24T03:49:07.596Z,54.50
2023-03-24T03:51:34.850Z,55.00
2023-03-24T03:54:04.868Z,55.00
2023-03-24T03:56:34.832Z,55.00
2023-03-24T03:59:02.817Z,54.40
2023-03-24T04:01:34.047Z,55.00
2023-03-24T04:04:37.895Z,55.00
2023-03-24T04:07:36.901Z,55.00
2023-03-24T04:10:38.554Z,55.60
2023-03-24T04:13:05.242Z,54.90
2023-03-24T04:15:44.880Z,54.90
2023-03-24T04:18:38.723Z,55.00
2023-03-24T04:21:33.428Z,55.00
2023-03-24T04:24:28.949Z,55.00
2023-03-24T04:27:27.095Z,55.00
2023-03-24T04:30:02.570Z,55.00
2023-03-24T04:32:48.320Z,55.00
2023-03-24T04:35:45.237Z,54.90
2023-03-24T04:38:27.734Z,54.90
2023-03-24T04:40:56.859Z,55.00
2023-03-24T04:43:28.417Z,55.00
2023-03-24T04:45:57.816Z,54.90
2023-03-24T04:48:26.130Z,54.90
2023-03-24T04:51:00.603Z,54.90
2023-03-24T04:53:27.969Z,54.90
2023-03-24T04:56:19.756Z,54.90
2023-03-24T04:58:46.527Z,55.00
2023-03-24T05:01:14.040Z,55.00
2023-03-24T05:03:42.006Z,55.00
2023-03-24T05:06:10.446Z,55.00
2023-03-24T05:08:37.872Z,55.00
2023-03-24T05:11:05.123Z,55.00
2023-03-24T05:13:32.007Z,55.00
2023-03-24T05:15:58.743Z,55.00
2023-03-24T05:18:25.626Z,55.10
2023-03-24T05:20:53.619Z,55.00
2023-03-24T05:23:20.305Z,55.00
2023-03-24T05:25:47.694Z,55.00
2023-03-24T05:28:14.278Z,55.00
2023-03-24T05:30:41.245Z,55.00
2023-03-24T05:33:08.034Z,55.00
2023-03-24T05:35:34.924Z,55.00
2023-03-24T05:38:01.577Z,54.50
2023-03-24T05:40:28.198Z,55.00
2023-03-24T05:42:54.858Z,55.00
2023-03-24T05:45:21.490Z,55.00
2023-03-24T05:47:48.363Z,54.90
2023-03-24T05:50:15.054Z,55.60
2023-03-24T05:52:41.904Z,55.00
2023-03-24T05:55:09.293Z,55.30
2023-03-24T05:57:36.626Z,54.50
2023-03-24T06:00:09.394Z,54.50
2023-03-24T06:02:36.294Z,55.00
2023-03-24T06:05:03.849Z,55.00
2023-03-24T06:07:30.628Z,54.90
2023-03-24T06:10:02.946Z,55.60
2023-03-24T06:12:30.836Z,55.00
2023-03-24T06:14:57.768Z,54.90
2023-03-24T06:17:24.725Z,55.00
2023-03-24T06:19:51.567Z,54.80
2023-03-24T06:22:18.895Z,54.90
2023-03-24T06:24:46.991Z,54.90
2023-03-24T06:27:14.233Z,54.90
2023-03-24T06:29:44.669Z,54.80
2023-03-24T06:32:11.529Z,54.90
2023-03-24T06:34:40.320Z,55.20
2023-03-24T06:37:06.918Z,54.90
2023-03-24T06:39:33.555Z,54.80
2023-03-24T06:42:00.248Z,54.90
2023-03-24T06:44:26.972Z,54.80
2023-03-24T06:46:53.642Z,54.90
2023-03-24T06:49:20.312Z,54.90
2023-03-24T06:51:47.046Z,55.10
2023-03-24T06:54:13.659Z,54.90
2023-03-24T06:56:40.319Z,54.80
2023-03-24T06:59:07.005Z,54.80
2023-03-24T07:01:35.203Z,54.80
2023-03-24T07:04:03.154Z,54.90
2023-03-24T07:06:30.179Z,54.90
2023-03-24T07:08:57.441Z,54.80
2023-03-24T07:11:24.438Z,54.80
2023-03-24T07:13:51.383Z,54.80
2023-03-24T07:16:18.210Z,55.00
2023-03-24T07:18:44.839Z,54.90
2023-03-24T07:21:11.509Z,54.80
2023-03-24T07:23:38.187Z,54.90
2023-03-24T07:26:04.997Z,54.90
2023-03-24T07:28:31.641Z,54.80
2023-03-24T07:31:01.708Z,54.80
2023-03-24T07:33:28.612Z,54.80
2023-03-24T07:35:57.201Z,54.80
2023-03-24T07:38:25.314Z,54.80
2023-03-24T07:40:52.310Z,54.80
2023-03-24T07:43:18.934Z,55.40
2023-03-24T07:45:46.659Z,54.80
2023-03-24T07:48:13.463Z,55.40
2023-03-24T07:50:40.212Z,54.80
2023-03-24T07:53:09.655Z,54.90
2023-03-24T07:55:38.285Z,54.90
2023-03-24T07:58:05.486Z,54.90
2023-03-24T08:00:33.521Z,54.80
2023-03-24T08:03:00.854Z,54.80
2023-03-24T08:05:29.589Z,54.90
2023-03-24T08:07:58.084Z,54.80
2023-03-24T08:10:30.049Z,55.40
2023-03-24T08:12:58.287Z,54.80
2023-03-24T08:15:27.027Z,54.90
2023-03-24T08:17:54.062Z,54.80
2023-03-24T08:20:21.211Z,55.00
2023-03-24T08:22:49.668Z,54.80
2023-03-24T08:25:21.956Z,54.80
2023-03-24T08:30:21.159Z,54.30
2023-03-24T08:32:51.398Z,54.80
2023-03-24T08:35:21.650Z,54.80
2023-03-24T08:37:48.383Z,54.90
2023-03-24T08:40:19.609Z,54.80
2023-03-24T08:42:52.198Z,54.80
2023-03-24T08:45:21.370Z,54.80
2023-03-24T08:47:50.395Z,54.80
2023-03-24T08:50:18.160Z,54.80
2023-03-24T08:52:48.001Z,54.80
2023-03-24T08:55:16.454Z,54.80
2023-03-24T08:57:43.176Z,54.80
2023-03-24T09:00:16.705Z,54.80
2023-03-24T09:02:48.459Z,54.80
2023-03-24T09:05:17.992Z,54.80
2023-03-24T09:07:45.819Z,54.80
2023-03-24T09:10:13.488Z,54.30
2023-03-24T09:12:40.756Z,55.50
2023-03-24T09:15:09.445Z,54.80
2023-03-24T09:17:37.429Z,54.80
2023-03-24T09:20:08.338Z,54.80
2023-03-24T09:22:42.792Z,54.80
2023-03-24T09:25:16.848Z,54.80
2023-03-24T09:27:43.655Z,54.80
2023-03-24T09:30:12.614Z,54.30
2023-03-24T09:32:39.301Z,54.80
2023-03-24T09:35:08.049Z,54.80
2023-03-24T09:37:36.298Z,54.80
2023-03-24T09:40:04.939Z,54.90
2023-03-24T09:42:41.141Z,54.80
2023-03-24T09:45:18.517Z,54.80
2023-03-24T09:48:07.108Z,54.80
2023-03-24T09:50:40.727Z,54.30
2023-03-24T09:53:18.580Z,54.80
2023-03-24T09:55:45.844Z,55.40
2023-03-24T09:58:13.180Z,54.70
2023-03-24T10:00:40.451Z,54.70
2023-03-24T10:03:27.595Z,54.80
2023-03-24T10:05:58.357Z,54.70
2023-03-24T10:08:33.176Z,54.30
2023-03-24T10:11:05.687Z,54.80
2023-03-24T10:13:55.764Z,54.70
2023-03-24T10:16:49.502Z,54.70
2023-03-24T10:19:44.218Z,54.30
2023-03-24T10:22:33.004Z,54.80
2023-03-24T10:25:21.448Z,54.90
2023-03-24T10:27:59.639Z,54.80
2023-03-24T10:30:34.400Z,54.90
2023-03-24T10:33:01.071Z,54.80
2023-03-24T10:35:37.201Z,54.90
2023-03-24T10:38:20.546Z,54.90
2023-03-24T10:40:48.712Z,54.90
2023-03-24T10:43:19.686Z,54.90
2023-03-24T10:45:52.521Z,54.90
2023-03-24T10:48:35.352Z,54.90
2023-03-24T10:51:02.643Z,54.90
2023-03-24T10:53:29.273Z,54.90
2023-03-24T10:55:56.075Z,54.90
2023-03-24T10:58:41.281Z,54.50
2023-03-24T11:01:18.448Z,55.00
2023-03-24T11:03:45.424Z,54.90
2023-03-24T11:06:19.013Z,55.00
2023-03-24T11:08:46.167Z,54.90
2023-03-24T11:11:24.332Z,54.90
2023-03-24T11:13:57.269Z,54.90
2023-03-24T11:16:30.108Z,55.00
2023-03-24T11:19:05.480Z,55.00
2023-03-24T11:21:35.877Z,54.90
2023-03-24T11:24:10.306Z,54.90
2023-03-24T11:26:38.834Z,54.90
2023-03-24T11:29:13.803Z,54.40
2023-03-24T11:31:41.514Z,54.90
2023-03-24T11:34:42.138Z,54.90
2023-03-24T11:37:14.300Z,54.90
2023-03-24T11:39:40.990Z,54.40
2023-03-24T11:42:10.525Z,54.90
2023-03-24T11:44:52.523Z,55.00
2023-03-24T11:47:24.314Z,54.90
2023-03-24T11:50:18.909Z,55.00
2023-03-24T11:52:59.557Z,54.90
2023-03-24T11:55:36.563Z,54.90
2023-03-24T11:58:16.459Z,54.90
2023-03-24T12:01:06.260Z,54.90
2023-03-24T12:04:10.326Z,54.90
2023-03-24T12:07:07.909Z,54.90
2023-03-24T12:09:43.087Z,54.90
2023-03-24T12:12:30.944Z,54.90
2023-03-24T12:15:28.247Z,54.80
2023-03-24T12:18:04.094Z,54.90
2023-03-24T12:20:40.069Z,54.90
2023-03-24T12:23:25.873Z,54.90
2023-03-24T12:26:22.197Z,54.90
2023-03-24T12:28:58.299Z,54.90
2023-03-24T12:31:49.528Z,54.90
2023-03-24T12:34:34.600Z,54.90
2023-03-24T12:37:33.720Z,54.80
2023-03-24T12:40:21.336Z,54.80
2023-03-24T12:42:52.549Z,54.90
2023-03-24T12:45:26.198Z,54.80
2023-03-24T12:48:13.730Z,54.80
2023-03-24T12:51:05.539Z,54.90
2023-03-24T12:53:56.625Z,54.80
2023-03-24T12:57:07.602Z,54.90
2023-03-24T12:59:41.127Z,54.80
2023-03-24T13:02:39.026Z,54.90
2023-03-24T13:05:15.955Z,54.80
2023-03-24T13:07:44.019Z,54.90
2023-03-24T13:10:15.278Z,55.10
2023-03-24T13:12:44.103Z,55.00
2023-03-24T13:15:13.471Z,55.00
2023-03-24T13:17:46.058Z,55.10
2023-03-24T13:20:19.218Z,55.20
2023-03-24T13:22:46.241Z,55.30
2023-03-24T13:25:50.281Z,55.30
2023-03-24T13:28:24.229Z,55.30
2023-03-24T13:30:51.422Z,54.80
2023-03-24T13:33:27.774Z,55.30
2023-03-24T13:36:27.456Z,55.40
2023-03-24T13:38:57.903Z,55.10
2023-03-24T13:41:30.643Z,55.70
2023-03-24T13:44:04.031Z,55.80
2023-03-24T13:46:30.761Z,55.80
2023-03-24T13:48:58.808Z,55.90
2023-03-24T13:51:30.286Z,55.90
2023-03-24T13:54:06.129Z,56.00
2023-03-24T13:56:39.690Z,56.00
2023-03-24T13:59:19.493Z,56.20
2023-03-24T14:02:10.610Z,56.10
2023-03-24T14:04:56.715Z,56.20
2023-03-24T14:07:32.377Z,56.20
2023-03-24T14:10:20.827Z,56.30
2023-03-24T14:12:57.618Z,56.40
2023-03-24T14:15:35.403Z,56.50
2023-03-24T14:18:23.799Z,56.60
2023-03-24T14:20:56.802Z,56.50
2023-03-24T14:23:45.817Z,56.70
2023-03-24T14:26:21.368Z,56.70
2023-03-24T14:28:50.381Z,56.70
2023-03-24T14:31:24.144Z,56.80
2023-03-24T14:33:53.904Z,56.80
2023-03-24T14:36:30.303Z,56.90
2023-03-24T14:39:05.911Z,57.00
2023-03-24T14:41:39.050Z,57.80
2023-03-24T14:44:06.657Z,57.00
2023-03-24T14:46:43.305Z,57.10
2023-03-24T14:49:32.747Z,57.50
2023-03-24T14:52:18.831Z,58.00
2023-03-24T14:55:05.813Z,57.70
2023-03-24T14:57:40.907Z,58.00
2023-03-24T15:00:14.887Z,58.70
2023-03-24T15:02:43.790Z,58.10
2023-03-24T15:05:29.967Z,58.80
2023-03-24T15:08:16.708Z,58.00
2023-03-24T15:10:58.096Z,58.10
2023-03-24T15:13:24.674Z,57.80
2023-03-24T15:15:51.353Z,58.60
2023-03-24T15:18:22.377Z,58.30
2023-03-24T15:20:50.734Z,58.10
2023-03-24T15:23:26.064Z,58.70
2023-03-24T15:25:54.718Z,58.10
2023-03-24T15:28:30.320Z,58.10
2023-03-24T15:31:01.229Z,58.00
2023-03-24T15:33:30.872Z,58.10
2023-03-24T15:35:59.495Z,58.10
2023-03-24T15:38:33.423Z,58.00
2023-03-24T15:41:08.536Z,58.00
2023-03-24T15:43:45.744Z,58.00
2023-03-24T15:46:23.591Z,58.00
2023-03-24T15:48:50.768Z,57.50
2023-03-24T15:51:17.430Z,58.00
2023-03-24T15:54:02.426Z,58.00
2023-03-24T15:56:31.594Z,58.00
2023-03-24T15:59:04.018Z,57.50
2023-03-24T16:01:31.434Z,58.00
2023-03-24T16:04:01.670Z,58.00
2023-03-24T16:06:33.573Z,58.00
2023-03-24T16:09:04.010Z,58.00
2023-03-24T16:11:31.001Z,58.80
2023-03-24T16:13:58.905Z,58.60
2023-03-24T16:16:46.708Z,58.60
2023-03-24T16:19:17.060Z,57.30
2023-03-24T16:21:43.662Z,58.00
2023-03-24T16:24:10.655Z,57.90
2023-03-24T16:26:37.374Z,58.00
2023-03-24T16:29:17.925Z,57.80
2023-03-24T16:31:49.031Z,57.90
2023-03-24T16:34:20.849Z,57.90
2023-03-24T16:36:48.989Z,58.00
2023-03-24T16:39:18.902Z,58.00
2023-03-24T16:41:45.601Z,58.00
2023-03-24T16:44:13.227Z,58.00
2023-03-24T16:46:41.146Z,58.00
2023-03-24T16:49:12.377Z,58.00
2023-03-24T16:51:39.497Z,58.00
2023-03-24T16:54:07.453Z,57.90
2023-03-24T16:56:34.056Z,57.90
2023-03-24T16:59:00.744Z,57.50
2023-03-24T17:01:33.577Z,58.00
2023-03-24T17:04:03.230Z,57.90
2023-03-24T17:06:32.380Z,57.80
2023-03-24T17:08:59.834Z,57.80
2023-03-24T17:11:33.007Z,57.80
2023-03-24T17:14:04.504Z,57.60
2023-03-24T17:16:36.716Z,57.60
2023-03-24T17:19:04.991Z,57.40
2023-03-24T17:21:44.833Z,57.40
2023-03-24T17:24:13.031Z,57.40
2023-03-24T17:26:40.853Z,57.40
2023-03-24T17:29:09.663Z,57.50
2023-03-24T17:31:36.594Z,57.50
2023-03-24T17:34:15.210Z,57.50
2023-03-24T17:36:51.647Z,57.50
2023-03-24T17:39:20.930Z,57.60
2023-03-24T17:41:47.609Z,57.60
2023-03-24T17:44:14.227Z,57.70
2023-03-24T17:46:41.211Z,57.50
2023-03-24T17:49:07.923Z,57.50
2023-03-24T17:51:34.511Z,57.50
2023-03-24T17:54:01.093Z,57.40
2023-03-24T17:56:27.775Z,57.40
2023-03-24T17:58:58.955Z,57.40
2023-03-24T18:01:29.329Z,57.40
2023-03-24T18:03:56.903Z,57.50
2023-03-24T18:06:23.558Z,57.50
2023-03-24T18:08:53.278Z,57.50
2023-03-24T18:11:20.360Z,57.40
2023-03-24T18:13:47.113Z,57.40
2023-03-24T18:16:21.354Z,57.40
2023-03-24T18:18:50.138Z,57.40
2023-03-24T18:21:17.618Z,57.30
2023-03-24T18:23:46.162Z,57.30
2023-03-24T18:26:12.793Z,57.30
2023-03-24T18:28:39.442Z,57.30
2023-03-24T18:31:10.617Z,57.60
2023-03-24T18:33:37.329Z,57.60
2023-03-24T18:36:05.793Z,57.60
2023-03-24T18:38:32.437Z,57.30
2023-03-24T18:41:04.613Z,57.70
2023-03-24T18:43:34.215Z,57.90
2023-03-24T18:46:01.181Z,58.00
2023-03-24T18:48:27.812Z,58.00
2023-03-24T18:50:54.411Z,58.00
2023-03-24T18:53:22.107Z,58.00
2023-03-24T18:55:50.946Z,58.00
2023-03-24T18:58:18.368Z,57.50
2023-03-24T19:00:51.076Z,58.60
2023-03-24T19:03:19.323Z,58.00
2023-03-24T19:05:46.846Z,58.00
2023-03-24T19:08:14.675Z,58.00
2023-03-24T19:10:45.564Z,58.00
2023-03-24T19:13:15.930Z,58.00
2023-03-24T19:15:47.495Z,58.00
2023-03-24T19:18:15.325Z,58.00
2023-03-24T19:20:42.237Z,58.60
2023-03-24T19:23:08.969Z,58.00
2023-03-24T19:25:35.616Z,58.00
2023-03-24T19:28:02.341Z,58.00
2023-03-24T19:30:29.418Z,58.00
2023-03-24T19:32:56.662Z,58.00
2023-03-24T19:35:23.662Z,58.00
2023-03-24T19:37:50.438Z,57.40
2023-03-24T19:40:17.403Z,58.00
2023-03-24T19:42:44.919Z,57.90
2023-03-24T19:45:15.273Z,57.80
2023-03-24T19:47:43.299Z,57.80
2023-03-24T19:50:11.143Z,57.80
2023-03-24T19:52:38.182Z,57.70
2023-03-24T19:55:06.507Z,57.70
2023-03-24T19:57:33.537Z,57.60
2023-03-24T20:00:00.619Z,57.60
2023-03-24T20:02:28.311Z,57.50
2023-03-24T20:04:55.399Z,57.50
2023-03-24T20:07:23.334Z,57.50
2023-03-24T20:09:50.261Z,57.60
2023-03-24T20:12:16.975Z,57.60
2023-03-24T20:14:44.611Z,57.50
2023-03-24T20:17:19.414Z,57.50
2023-03-24T20:19:46.648Z,57.90
2023-03-24T20:22:14.252Z,57.40
2023-03-24T20:24:42.546Z,57.30
2023-03-24T20:27:09.432Z,57.30
2023-03-24T20:29:36.503Z,57.20
2023-03-24T20:32:03.217Z,57.10
2023-03-24T20:34:29.815Z,57.20
2023-03-24T20:36:56.448Z,57.10
2023-03-24T20:39:23.256Z,57.00
2023-03-24T20:41:50.087Z,56.90
2023-03-24T20:44:16.772Z,56.90
2023-03-24T20:46:44.836Z,56.90
2023-03-24T20:49:16.324Z,56.20
2023-03-24T20:51:43.974Z,56.80
2023-03-24T20:54:10.716Z,56.70
2023-03-24T20:56:37.764Z,56.80
2023-03-24T20:59:07.517Z,56.90
2023-03-24T21:01:41.795Z,56.80
2023-03-24T21:04:10.026Z,56.80
2023-03-24T21:06:40.299Z,56.80
2023-03-24T21:09:07.297Z,56.80
2023-03-24T21:11:34.462Z,56.70
2023-03-24T21:14:02.728Z,56.70
2023-03-24T21:16:33.609Z,56.60
2023-03-24T21:19:01.667Z,56.70
2023-03-24T21:21:28.718Z,56.70
2023-03-24T21:23:57.341Z,56.70
2023-03-24T21:26:25.117Z,56.70
2023-03-24T21:28:52.772Z,56.70
2023-03-24T21:31:25.301Z,56.60
2023-03-24T21:33:53.082Z,56.50
2023-03-24T21:36:20.721Z,56.40
2023-03-24T21:38:53.750Z,56.40
2023-03-24T21:41:20.842Z,56.40
2023-03-24T21:43:51.042Z,56.30
2023-03-24T21:46:22.318Z,56.30
2023-03-24T21:48:51.674Z,56.30
2023-03-24T21:51:25.166Z,56.90
2023-03-24T21:53:55.730Z,56.20
2023-03-24T21:56:23.204Z,56.20
2023-03-24T21:58:51.994Z,56.20
2023-03-24T22:01:18.686Z,56.20
2023-03-24T22:03:46.227Z,56.10
2023-03-24T22:06:13.216Z,56.00
2023-03-24T22:08:43.380Z,56.00
2023-03-24T22:11:11.280Z,56.20
2023-03-24T22:13:39.083Z,56.00
2023-03-24T22:16:06.613Z,56.00
2023-03-24T22:18:35.203Z,55.90
2023-03-24T22:21:04.470Z,55.90
2023-03-24T22:23:33.388Z,55.90
2023-03-24T22:26:01.804Z,55.90
2023-03-24T22:28:31.094Z,55.50
2023-03-24T22:31:01.873Z,56.00
2023-03-24T22:33:28.704Z,56.00
2023-03-24T22:35:57.233Z,55.90
2023-03-24T22:38:24.369Z,55.90
2023-03-24T22:40:51.475Z,55.90
2023-03-24T22:43:18.122Z,55.80
2023-03-24T22:45:45.208Z,55.90
2023-03-24T22:48:12.664Z,55.90
2023-03-24T22:50:42.413Z,55.80
2023-03-24T22:53:09.369Z,55.80
2023-03-24T22:55:36.941Z,55.70
2023-03-24T22:58:04.535Z,55.80
2023-03-24T23:00:31.691Z,55.20
2023-03-24T23:02:58.396Z,55.70
2023-03-24T23:05:25.346Z,55.70
2023-03-24T23:07:52.089Z,55.60
2023-03-24T23:10:19.498Z,55.10
2023-03-24T23:12:46.151Z,55.60
2023-03-24T23:15:14.056Z,55.60
2023-03-24T23:17:42.921Z,55.60
2023-03-24T23:20:11.924Z,55.60
2023-03-24T23:22:38.981Z,55.60
2023-03-24T23:25:07.013Z,55.50
2023-03-24T23:27:37.987Z,55.50
2023-03-24T23:30:07.038Z,55.50
2023-03-24T23:32:35.444Z,55.60
2023-03-24T23:35:03.517Z,55.50
2023-03-24T23:37:32.029Z,55.40
2023-03-24T23:40:09.429Z,55.50
2023-03-24T23:42:37.193Z,55.40
2023-03-24T23:45:08.151Z,55.40
2023-03-24T23:47:36.584Z,55.40
2023-03-24T23:50:06.161Z,55.40
2023-03-24T23:52:33.474Z,55.40
2023-03-24T23:55:02.129Z,55.30
2023-03-24T23:57:29.269Z,55.30
2023-03-24T23:59:55.874Z,55.30
